Time;durP1;ratioP1;P1;durP2;ratioP2;P2;SDS_P1;SDS_P2;PMS_P1;PMS_P2;Temp;Humidity;BMP_temperature;BMP_pressure;BME280_temperature;BME280_humidity;BME280_pressure;Samples;Min_cycle;Max_cycle;Signal;HPM_P1;HPM_P2
2021/10/29 00:02:09;;;;;;;19.00;10.77;;;10.50;90.50;;;;;;5033718;27;20512;-76
2021/10/29 00:04:35;;;;;;;17.17;10.30;;;10.50;90.50;;;;;;5015683;28;20034;-76
2021/10/29 00:07:01;;;;;;;16.15;10.60;;;10.50;90.50;;;;;;5027263;28;20042;-76
2021/10/29 00:09:27;;;;;;;19.70;11.05;;;10.50;90.50;;;;;;5028303;28;20037;-77
2021/10/29 00:11:52;;;;;;;16.92;10.93;;;10.50;90.50;;;;;;5054141;27;20041;-77
2021/10/29 00:14:18;;;;;;;21.30;11.32;;;10.50;90.60;;;;;;5012939;28;20042;-76
2021/10/29 00:16:43;;;;;;;17.88;10.77;;;10.50;90.60;;;;;;5000903;28;20042;-77
2021/10/29 00:19:09;;;;;;;15.73;10.88;;;10.40;90.60;;;;;;5043329;27;20033;-76
2021/10/29 00:21:35;;;;;;;16.30;10.63;;;10.40;90.60;;;;;;5001432;28;20539;-76
2021/10/29 00:24:00;;;;;;;17.80;11.15;;;10.40;90.60;;;;;;5011126;28;20030;-76
2021/10/29 00:26:26;;;;;;;17.90;10.77;;;10.40;90.60;;;;;;5024208;27;20393;-76
2021/10/29 00:28:51;;;;;;;16.23;10.63;;;10.40;90.60;;;;;;5025408;28;20041;-76
2021/10/29 00:31:17;;;;;;;16.27;11.20;;;10.40;90.60;;;;;;5013216;28;20475;-77
2021/10/29 00:33:43;;;;;;;19.48;11.13;;;10.40;90.60;;;;;;5012873;28;20057;-76
2021/10/29 00:36:08;;;;;;;17.50;10.90;;;10.40;90.60;;;;;;5038789;27;20026;-76
2021/10/29 00:38:34;;;;;;;18.70;11.00;;;10.40;90.60;;;;;;5032913;27;20540;-76
2021/10/29 00:41:00;;;;;;;17.08;11.25;;;10.40;90.60;;;;;;5005560;28;20030;-76
2021/10/29 00:43:25;;;;;;;15.75;10.25;;;10.40;90.50;;;;;;5033636;27;20026;-76
2021/10/29 00:45:51;;;;;;;14.90;10.57;;;10.40;90.60;;;;;;5023957;27;20077;-76
2021/10/29 00:48:17;;;;;;;15.40;10.63;;;10.40;90.60;;;;;;5019067;27;20057;-76
2021/10/29 00:50:43;;;;;;;15.95;10.25;;;10.40;90.60;;;;;;5021960;28;20022;-76
2021/10/29 00:53:10;;;;;;;16.70;10.05;;;10.40;90.60;;;;;;5005472;28;20030;-76
2021/10/29 00:55:36;;;;;;;15.65;10.00;;;10.40;90.60;;;;;;5025986;27;20500;-77
2021/10/29 00:58:02;;;;;;;15.40;9.80;;;10.40;90.60;;;;;;5030598;27;20030;-76
2021/10/29 01:00:27;;;;;;;14.40;9.70;;;10.40;90.60;;;;;;5006381;28;20045;-76
2021/10/29 01:02:53;;;;;;;14.00;9.57;;;10.40;90.60;;;;;;5027274;27;20038;-76
2021/10/29 01:05:19;;;;;;;16.52;10.30;;;10.30;90.60;;;;;;5029183;28;20101;-77
2021/10/29 01:07:45;;;;;;;14.25;9.93;;;10.40;90.60;;;;;;5027346;28;20037;-76
2021/10/29 01:10:11;;;;;;;15.32;9.75;;;10.40;90.60;;;;;;4993674;28;20873;-76
2021/10/29 01:12:37;;;;;;;15.02;9.65;;;10.30;90.60;;;;;;5028432;28;20534;-76
2021/10/29 01:15:05;;;;;;;17.83;10.18;;;10.40;90.50;;;;;;4994826;28;20033;-76
2021/10/29 01:17:30;;;;;;;18.35;9.98;;;10.40;90.60;;;;;;5021693;28;20100;-76
2021/10/29 01:19:58;;;;;;;14.60;9.43;;;10.40;90.60;;;;;;5028118;28;20108;-77
2021/10/29 01:22:24;;;;;;;15.98;9.82;;;10.40;90.60;;;;;;5025454;28;20037;-76
2021/10/29 01:24:51;;;;;;;14.10;9.20;;;10.40;90.60;;;;;;5024782;28;20081;-76
2021/10/29 01:27:17;;;;;;;15.88;9.55;;;10.40;90.60;;;;;;5026612;28;20083;-76
2021/10/29 01:29:44;;;;;;;13.45;9.13;;;10.40;90.60;;;;;;5054788;28;20038;-76
2021/10/29 01:32:11;;;;;;;12.25;8.10;;;10.40;90.60;;;;;;5019491;28;20390;-76
2021/10/29 01:34:39;;;;;;;14.77;8.65;;;10.40;90.60;;;;;;5039431;28;20102;-76
2021/10/29 01:37:06;;;;;;;11.27;8.50;;;10.40;90.60;;;;;;5005166;28;20442;-76
2021/10/29 01:39:32;;;;;;;14.00;8.23;;;10.40;90.60;;;;;;5024389;28;20061;-76
2021/10/29 01:41:58;;;;;;;12.88;8.73;;;10.40;90.60;;;;;;5036438;27;20090;-76
2021/10/29 01:44:24;;;;;;;11.60;7.97;;;10.30;90.60;;;;;;4995118;28;20033;-76
2021/10/29 01:46:49;;;;;;;12.52;8.32;;;10.40;90.60;;;;;;5023973;28;20028;-76
2021/10/29 01:49:16;;;;;;;15.05;8.20;;;10.40;90.60;;;;;;5026198;27;20828;-76
2021/10/29 01:51:43;;;;;;;12.73;7.93;;;10.40;90.60;;;;;;5045578;28;20036;-76
2021/10/29 01:54:08;;;;;;;12.40;7.82;;;10.40;90.60;;;;;;5033954;27;20025;-77
2021/10/29 01:56:34;;;;;;;15.82;8.85;;;10.40;90.60;;;;;;5029214;28;20423;-76
2021/10/29 01:59:00;;;;;;;12.93;7.53;;;10.40;90.60;;;;;;5007549;28;20045;-76
2021/10/29 02:01:25;;;;;;;16.20;7.97;;;10.40;90.60;;;;;;5028857;27;20081;-76
2021/10/29 02:03:51;;;;;;;12.80;7.78;;;10.40;90.60;;;;;;4997984;28;20037;-76
2021/10/29 02:06:18;;;;;;;15.18;8.20;;;10.40;90.60;;;;;;5024989;28;20132;-76
2021/10/29 02:08:44;;;;;;;13.15;8.13;;;10.40;90.60;;;;;;5030723;28;20417;-76
2021/10/29 02:11:10;;;;;;;11.73;7.70;;;10.40;90.70;;;;;;4991885;28;20030;-76
2021/10/29 02:13:36;;;;;;;12.82;7.55;;;10.40;90.70;;;;;;5011146;28;20497;-76
2021/10/29 02:16:02;;;;;;;15.07;7.57;;;10.40;90.70;;;;;;5033191;28;20023;-76
2021/10/29 02:18:27;;;;;;;12.60;7.75;;;10.40;90.70;;;;;;5044010;28;20052;-77
2021/10/29 02:20:53;;;;;;;12.48;7.20;;;10.30;90.70;;;;;;5026279;28;20038;-76
2021/10/29 02:23:19;;;;;;;12.35;7.72;;;10.30;90.80;;;;;;5027689;28;20029;-76
2021/10/29 02:25:45;;;;;;;10.45;7.75;;;10.30;90.90;;;;;;5044034;27;20045;-76
2021/10/29 02:28:13;;;;;;;11.15;7.63;;;10.30;90.80;;;;;;5015933;28;20034;-76
2021/10/29 02:30:39;;;;;;;12.77;7.55;;;10.30;90.90;;;;;;5002380;28;20064;-77
2021/10/29 02:33:05;;;;;;;13.55;7.55;;;10.30;90.90;;;;;;5020111;28;20030;-76
2021/10/29 02:35:31;;;;;;;16.63;7.63;;;10.30;90.90;;;;;;5006610;28;20037;-76
2021/10/29 02:37:57;;;;;;;11.38;7.78;;;10.30;90.90;;;;;;5070027;28;20390;-76
2021/10/29 02:40:22;;;;;;;15.68;8.25;;;10.30;91.00;;;;;;5020295;28;20037;-76
2021/10/29 02:42:48;;;;;;;12.65;7.90;;;10.30;91.00;;;;;;5028137;28;20026;-76
2021/10/29 02:45:13;;;;;;;14.10;7.95;;;10.30;91.10;;;;;;5015569;28;20208;-76
2021/10/29 02:47:39;;;;;;;13.45;6.85;;;10.30;91.10;;;;;;5045897;27;20049;-76
2021/10/29 02:50:05;;;;;;;13.40;8.07;;;10.30;91.10;;;;;;5034591;27;20042;-76
2021/10/29 02:52:31;;;;;;;11.10;7.57;;;10.30;91.10;;;;;;5031504;28;20533;-76
2021/10/29 02:54:56;;;;;;;11.23;7.15;;;10.30;91.10;;;;;;5019920;28;20184;-76
2021/10/29 02:57:22;;;;;;;14.52;7.72;;;10.30;91.10;;;;;;4997330;28;20053;-76
2021/10/29 02:59:48;;;;;;;13.20;8.10;;;10.30;91.10;;;;;;5025943;27;20038;-76
2021/10/29 03:02:13;;;;;;;12.38;7.88;;;10.30;91.20;;;;;;5032398;27;20037;-76
2021/10/29 03:04:39;;;;;;;12.70;7.53;;;10.30;91.20;;;;;;5030667;28;20037;-76
2021/10/29 03:07:05;;;;;;;13.52;7.90;;;10.20;91.20;;;;;;5040304;27;20399;-77
2021/10/29 03:09:31;;;;;;;14.32;7.78;;;10.20;91.20;;;;;;5015145;28;20038;-76
2021/10/29 03:11:56;;;;;;;10.68;7.15;;;10.20;91.20;;;;;;5037413;27;20482;-76
2021/10/29 03:14:22;;;;;;;12.23;7.70;;;10.30;91.20;;;;;;5025462;27;20029;-76
2021/10/29 03:16:48;;;;;;;11.52;7.72;;;10.20;91.20;;;;;;4994558;28;20033;-76
2021/10/29 03:19:14;;;;;;;10.73;8.50;;;10.20;91.30;;;;;;5043877;28;20893;-76
2021/10/29 03:21:39;;;;;;;12.98;7.72;;;10.20;91.30;;;;;;5013697;28;20038;-76
2021/10/29 03:24:05;;;;;;;13.27;7.65;;;10.20;91.30;;;;;;5031760;27;20033;-76
2021/10/29 03:26:30;;;;;;;11.75;8.27;;;10.20;91.30;;;;;;5057478;27;20079;-76
2021/10/29 03:28:56;;;;;;;11.52;8.10;;;10.20;91.40;;;;;;5030422;28;20117;-77
2021/10/29 03:31:22;;;;;;;15.18;8.35;;;10.20;91.40;;;;;;5034411;27;20423;-76
2021/10/29 03:33:47;;;;;;;11.48;7.78;;;10.20;91.40;;;;;;5012946;28;20029;-76
2021/10/29 03:36:13;;;;;;;13.35;8.45;;;10.20;91.50;;;;;;5034080;27;20068;-76
2021/10/29 03:38:47;;;;;;;13.95;8.25;;;10.10;91.40;;;;;;5029154;28;20394;-76
2021/10/29 03:41:18;;;;;;;12.88;8.80;;;10.20;91.40;;;;;;5010359;28;20059;-76
2021/10/29 03:43:51;;;;;;;17.70;9.07;;;10.20;91.40;;;;;;5027042;27;20037;-76
2021/10/29 03:46:19;;;;;;;11.52;7.63;;;10.20;91.40;;;;;;5035745;27;20041;-76
2021/10/29 03:56:42;;;;;;;13.27;7.70;;;10.10;91.40;;;;;;4983017;28;20047;-76
2021/10/29 03:59:10;;;;;;;13.38;8.10;;;10.20;91.40;;;;;;5000197;28;20038;-76
2021/10/29 04:01:36;;;;;;;12.10;8.00;;;10.10;91.40;;;;;;5011762;28;20379;-76
2021/10/29 04:04:01;;;;;;;10.88;8.15;;;10.10;91.50;;;;;;5012584;28;20117;-76
2021/10/29 04:06:27;;;;;;;11.02;7.80;;;10.10;91.50;;;;;;5002600;28;20120;-77
2021/10/29 04:08:53;;;;;;;11.55;7.10;;;10.10;91.50;;;;;;4992902;28;20065;-76
2021/10/29 04:11:22;;;;;;;12.15;7.65;;;10.00;91.80;;;;;;5021375;28;20494;-76
2021/10/29 04:13:48;;;;;;;13.77;7.90;;;10.00;91.50;;;;;;5011562;28;20033;-76
2021/10/29 04:16:14;;;;;;;12.52;7.97;;;10.00;91.60;;;;;;5006879;28;20398;-76
2021/10/29 04:18:40;;;;;;;12.02;7.55;;;10.00;91.50;;;;;;4997637;28;20038;-76
2021/10/29 04:21:06;;;;;;;11.35;7.68;;;10.00;91.60;;;;;;4995763;28;20033;-76
2021/10/29 04:23:33;;;;;;;12.77;7.43;;;10.00;91.60;;;;;;5005823;28;20072;-76
2021/10/29 04:25:59;;;;;;;12.27;7.75;;;10.00;91.60;;;;;;4995365;28;20041;-76
2021/10/29 04:28:26;;;;;;;10.43;6.70;;;10.00;91.60;;;;;;5060064;28;20036;-76
2021/10/29 04:30:53;;;;;;;12.60;7.70;;;10.00;91.60;;;;;;5082318;28;20054;-76
2021/10/29 04:33:19;;;;;;;12.18;7.68;;;10.00;91.70;;;;;;4992624;28;20025;-76
2021/10/29 04:35:47;;;;;;;12.95;7.45;;;10.00;91.70;;;;;;5009031;28;20075;-76
2021/10/29 04:38:13;;;;;;;11.32;7.53;;;10.00;91.60;;;;;;5008911;28;20030;-76
2021/10/29 04:40:41;;;;;;;12.50;7.25;;;10.00;91.60;;;;;;5009827;28;20029;-77
2021/10/29 04:43:09;;;;;;;11.95;7.50;;;10.00;91.70;;;;;;5015412;28;20025;-76
2021/10/29 04:45:35;;;;;;;13.37;6.93;;;10.00;91.60;;;;;;5011766;28;20024;-76
2021/10/29 04:48:03;;;;;;;9.90;7.30;;;10.00;91.60;;;;;;5007761;28;20884;-76
2021/10/29 04:50:29;;;;;;;11.15;7.57;;;10.00;91.70;;;;;;4996060;28;20110;-77
2021/10/29 04:52:55;;;;;;;11.98;7.15;;;10.00;91.70;;;;;;4993243;28;20624;-76
2021/10/29 04:55:21;;;;;;;11.55;8.00;;;9.90;91.70;;;;;;5001480;28;20128;-76
2021/10/29 04:57:46;;;;;;;11.75;7.13;;;10.00;91.70;;;;;;5027079;28;20044;-76
2021/10/29 05:00:13;;;;;;;13.27;7.28;;;10.00;91.70;;;;;;5010099;28;20079;-76
2021/10/29 05:02:38;;;;;;;14.00;7.32;;;10.00;91.70;;;;;;5007054;28;20040;-76
2021/10/29 05:05:07;;;;;;;9.80;7.10;;;10.00;91.70;;;;;;5024304;28;20026;-76
2021/10/29 05:07:34;;;;;;;11.57;7.13;;;10.00;91.70;;;;;;5008655;28;20026;-76
2021/10/29 05:10:00;;;;;;;13.43;7.35;;;10.00;91.80;;;;;;5007912;28;20038;-76
2021/10/29 05:12:26;;;;;;;13.68;7.65;;;10.00;91.70;;;;;;5011071;28;20389;-76
2021/10/29 05:14:52;;;;;;;11.60;7.47;;;10.00;91.70;;;;;;5012176;28;20402;-76
2021/10/29 05:17:18;;;;;;;14.00;7.80;;;10.00;91.70;;;;;;5005805;28;20025;-76
2021/10/29 05:19:44;;;;;;;12.00;7.82;;;10.00;91.70;;;;;;5009713;28;20034;-77
2021/10/29 05:22:10;;;;;;;13.57;8.00;;;10.00;91.70;;;;;;5009769;28;20033;-77
2021/10/29 05:24:36;;;;;;;12.00;8.20;;;9.90;91.60;;;;;;4998225;28;20038;-77
2021/10/29 05:27:01;;;;;;;12.38;7.88;;;10.00;91.70;;;;;;5007989;28;20060;-77
2021/10/29 05:29:27;;;;;;;15.23;7.97;;;9.90;91.70;;;;;;5028380;28;20034;-77
2021/10/29 05:31:53;;;;;;;14.32;8.60;;;10.00;91.70;;;;;;4995646;28;20056;-76
2021/10/29 05:34:19;;;;;;;11.32;8.07;;;9.90;91.70;;;;;;5011030;28;20382;-77
2021/10/29 05:36:48;;;;;;;18.25;8.93;;;9.90;91.80;;;;;;5011334;28;20026;-77
2021/10/29 05:39:14;;;;;;;14.40;7.85;;;9.80;91.80;;;;;;5012381;28;20490;-77
2021/10/29 05:41:47;;;;;;;13.20;8.00;;;9.80;91.80;;;;;;5007874;28;20490;-77
2021/10/29 05:44:13;;;;;;;12.45;8.77;;;9.80;91.90;;;;;;4999107;28;20034;-76
2021/10/29 05:46:42;;;;;;;15.45;8.50;;;9.80;91.90;;;;;;4997730;28;20038;-76
2021/10/29 05:49:10;;;;;;;13.13;7.80;;;9.80;91.90;;;;;;5053289;28;20499;-77
2021/10/29 05:51:48;;;;;;;12.85;8.18;;;9.70;91.90;;;;;;5091506;28;20068;-77
2021/10/29 05:57:04;;;;;;;18.77;8.80;;;9.70;92.00;;;;;;5087979;28;20028;-77
2021/10/29 05:59:34;;;;;;;14.40;8.35;;;9.70;91.90;;;;;;5091886;28;20024;-77
2021/10/29 06:02:00;;;;;;;13.27;7.65;;;9.70;92.00;;;;;;5082671;28;20031;-77
2021/10/29 06:04:26;;;;;;;15.00;7.60;;;9.80;92.00;;;;;;5076198;28;20476;-77
2021/10/29 06:06:53;;;;;;;14.63;7.93;;;9.70;91.90;;;;;;5083706;28;20523;-77
2021/10/29 06:09:18;;;;;;;14.68;7.43;;;9.80;92.00;;;;;;5072065;28;20127;-77
2021/10/29 06:11:44;;;;;;;14.93;8.55;;;9.80;92.00;;;;;;5097627;28;20111;-77
2021/10/29 06:14:10;;;;;;;11.48;7.88;;;9.80;92.00;;;;;;5072327;28;20384;-78
2021/10/29 06:16:36;;;;;;;13.80;7.95;;;9.80;91.90;;;;;;5085120;28;20078;-78
2021/10/29 06:19:03;;;;;;;13.32;8.30;;;9.80;92.00;;;;;;5077360;28;20032;-77
2021/10/29 06:21:36;;;;;;;11.70;7.60;;;9.80;92.00;;;;;;5097491;28;20380;-77
2021/10/29 06:24:05;;;;;;;11.38;7.68;;;9.80;92.00;;;;;;5084068;28;20031;-77
2021/10/29 06:26:41;;;;;;;13.65;7.75;;;9.80;92.00;;;;;;5088225;28;20392;-78
2021/10/29 06:29:07;;;;;;;12.52;7.85;;;9.80;92.00;;;;;;5093838;28;20047;-77
2021/10/29 06:31:33;;;;;;;11.57;8.15;;;9.80;92.00;;;;;;5085891;28;20055;-77
2021/10/29 06:33:59;;;;;;;10.50;7.53;;;9.80;92.00;;;;;;5092654;28;20032;-77
2021/10/29 06:36:24;;;;;;;14.00;7.28;;;9.80;92.00;;;;;;5092289;28;20028;-76
2021/10/29 06:38:50;;;;;;;12.68;7.70;;;9.80;92.30;;;;;;5091935;28;20038;-76
2021/10/29 06:41:16;;;;;;;12.20;7.78;;;9.80;92.00;;;;;;5095425;28;20031;-76
2021/10/29 07:03:07;;;;;;;12.00;6.88;;;10.00;91.90;;;;;;5032724;28;20075;-77
2021/10/29 07:11:32;;;;;;;9.80;6.95;;;10.00;91.90;;;;;;5031687;28;20029;-77
2021/10/29 07:40:45;;;;;;;12.63;7.53;;;10.40;91.40;;;;;;5080218;27;20040;-77
2021/10/29 07:43:15;;;;;;;10.88;7.20;;;10.50;91.40;;;;;;5045389;28;20683;-78
2021/10/29 07:45:41;;;;;;;13.32;6.95;;;10.50;91.30;;;;;;5010514;28;20033;-79
2021/10/29 07:48:07;;;;;;;10.32;7.13;;;10.60;91.30;;;;;;5027929;28;20037;-78
2021/10/29 07:50:33;;;;;;;14.77;7.78;;;10.60;91.30;;;;;;5027040;28;20026;-78
2021/10/29 07:53:00;;;;;;;12.07;6.80;;;10.70;91.20;;;;;;5009970;28;20120;-78
2021/10/29 07:55:27;;;;;;;17.48;7.18;;;10.70;91.10;;;;;;5026350;28;20025;-78
2021/10/29 07:58:00;;;;;;;15.52;7.07;;;10.80;91.00;;;;;;5028049;28;20025;-79
2021/10/29 08:00:26;;;;;;;9.88;6.18;;;10.80;91.00;;;;;;5027941;28;20032;-78
2021/10/29 08:02:51;;;;;;;12.05;6.93;;;10.90;90.90;;;;;;5042028;27;20027;-78
2021/10/29 08:05:18;;;;;;;11.40;6.93;;;11.00;90.80;;;;;;5011442;28;20538;-78
2021/10/29 08:07:43;;;;;;;12.98;7.60;;;11.10;90.70;;;;;;5027857;28;20406;-78
2021/10/29 08:10:10;;;;;;;11.63;6.88;;;11.20;90.50;;;;;;5029488;28;20029;-77
2021/10/29 08:12:38;;;;;;;13.38;6.55;;;11.30;90.40;;;;;;5029289;28;20033;-78
2021/10/29 08:15:05;;;;;;;9.93;6.25;;;11.40;90.30;;;;;;5075015;28;20427;-77
2021/10/29 08:17:33;;;;;;;9.90;6.90;;;11.50;90.30;;;;;;5031292;28;20033;-78
2021/10/29 08:20:03;;;;;;;11.38;6.75;;;11.60;90.10;;;;;;5013449;28;20033;-77
2021/10/29 08:22:29;;;;;;;11.63;6.47;;;11.70;90.20;;;;;;5028428;28;20144;-77
2021/10/29 08:24:54;;;;;;;10.55;6.07;;;11.70;89.80;;;;;;5030986;28;20167;-77
2021/10/29 08:27:21;;;;;;;11.32;6.82;;;11.80;89.70;;;;;;5032455;28;20120;-77
2021/10/29 08:29:47;;;;;;;10.38;6.55;;;11.90;89.60;;;;;;5046851;28;20434;-78
2021/10/29 08:32:13;;;;;;;9.98;6.40;;;11.90;89.20;;;;;;5013221;28;20030;-77
2021/10/29 08:34:39;;;;;;;11.82;6.20;;;12.10;89.10;;;;;;5012802;28;20055;-77
2021/10/29 08:37:07;;;;;;;12.00;6.25;;;12.10;88.80;;;;;;5031694;27;20428;-78
2021/10/29 08:39:34;;;;;;;11.27;5.60;;;12.20;88.80;;;;;;5044450;27;20059;-78
2021/10/29 08:42:01;;;;;;;10.55;6.05;;;12.20;88.60;;;;;;5007659;28;20049;-77
2021/10/29 08:44:28;;;;;;;12.18;5.70;;;12.20;88.50;;;;;;5038989;28;20061;-77
2021/10/29 08:46:54;;;;;;;11.73;5.95;;;12.30;88.40;;;;;;5027288;28;20040;-77
2021/10/29 08:49:21;;;;;;;9.38;5.40;;;12.30;88.30;;;;;;5030161;28;20056;-78
2021/10/29 08:51:48;;;;;;;9.48;6.20;;;12.40;88.20;;;;;;5013034;28;20026;-77
2021/10/29 08:54:14;;;;;;;12.77;5.70;;;12.40;88.10;;;;;;5030115;28;20030;-78
2021/10/29 08:56:40;;;;;;;8.18;5.45;;;12.50;88.00;;;;;;5022863;28;20512;-77
2021/10/29 08:59:09;;;;;;;8.55;4.88;;;12.60;87.90;;;;;;5029440;28;20044;-78
2021/10/29 09:05:00;;;;;;;8.43;5.07;;;12.80;86.80;;;;;;4998164;28;20034;-77
2021/10/29 09:32:47;;;;;;;9.40;4.80;;;13.70;84.00;;;;;;5022649;28;20044;-77
2021/10/29 09:35:16;;;;;;;8.75;5.10;;;13.80;84.00;;;;;;5037997;28;20462;-78
2021/10/29 09:38:05;;;;;;;10.90;5.15;;;13.90;84.00;;;;;;5043525;28;20431;-77
2021/10/29 09:40:56;;;;;;;9.77;4.78;;;13.90;83.80;;;;;;5042178;28;20104;-78
2021/10/29 09:43:23;;;;;;;10.68;4.55;;;14.00;83.60;;;;;;5024926;28;20054;-76
2021/10/29 09:46:06;;;;;;;9.32;4.88;;;14.10;83.30;;;;;;5040443;28;20026;-78
2021/10/29 09:48:51;;;;;;;11.52;4.15;;;14.20;82.90;;;;;;5023938;28;20114;-77
2021/10/29 09:51:20;;;;;;;6.53;4.25;;;14.20;82.90;;;;;;5023058;28;20061;-76
2021/10/29 09:58:54;;;;;;;12.73;5.00;;;14.50;82.70;;;;;;5041394;27;20043;-77
2021/10/29 10:01:23;;;;;;;9.82;4.60;;;14.60;82.30;;;;;;5021489;28;20532;-78
2021/10/29 10:03:51;;;;;;;7.43;4.00;;;14.70;81.90;;;;;;5033948;28;20030;-78
2021/10/29 10:06:22;;;;;;;7.43;4.32;;;14.70;81.50;;;;;;5035364;28;20397;-77
2021/10/29 10:08:51;;;;;;;7.53;4.43;;;14.80;81.30;;;;;;5047666;28;20042;-78
2021/10/29 10:11:18;;;;;;;8.93;4.43;;;14.90;81.10;;;;;;5015975;28;20490;-77
2021/10/29 10:13:45;;;;;;;9.60;4.28;;;15.00;81.10;;;;;;5031132;28;20484;-77
2021/10/29 10:16:13;;;;;;;6.78;4.32;;;15.00;80.50;;;;;;5015690;28;20113;-77
2021/10/29 10:18:40;;;;;;;9.80;4.05;;;15.00;80.50;;;;;;5015853;28;20492;-77
2021/10/29 10:21:17;;;;;;;7.50;3.92;;;15.10;80.50;;;;;;5030984;28;20064;-77
2021/10/29 10:23:46;;;;;;;8.15;4.53;;;15.20;80.20;;;;;;5021396;28;20041;-76
2021/10/29 11:00:11;;;;;;;7.18;3.42;;;16.10;78.30;;;;;;5031984;27;20081;-77
2021/10/29 11:10:09;;;;;;;13.07;3.97;;;16.20;77.10;;;;;;5026938;28;20044;-77
2021/10/29 11:13:05;;;;;;;7.82;3.10;;;16.20;77.40;;;;;;5034858;28;20029;-77
2021/10/29 11:15:31;;;;;;;6.65;2.90;;;16.20;77.50;;;;;;5031943;28;20030;-77
2021/10/29 11:18:02;;;;;;;5.65;3.30;;;16.20;77.70;;;;;;5000046;28;20515;-77
2021/10/29 11:21:13;;;;;;;7.60;3.67;;;16.20;77.90;;;;;;5017845;28;20674;-76
2021/10/29 11:23:32;;;;;;;6.13;3.38;;;16.20;77.70;;;;;;5041423;28;20445;-78
2021/10/29 11:26:37;;;;;;;5.93;3.40;;;16.20;77.80;;;;;;5024002;28;20124;-77
2021/10/29 11:29:04;;;;;;;9.63;3.20;;;16.30;77.80;;;;;;5034519;28;20031;-77
2021/10/29 11:31:49;;;;;;;5.07;3.10;;;16.30;77.60;;;;;;5014684;28;20026;-78
2021/10/29 11:34:17;;;;;;;9.85;3.50;;;16.30;77.60;;;;;;5031039;28;20496;-78
2021/10/29 11:36:50;;;;;;;9.60;3.65;;;16.30;77.60;;;;;;5054282;28;20058;-78
2021/10/29 11:39:24;;;;;;;6.00;3.15;;;16.40;77.40;;;;;;5019225;28;20029;-76
2021/10/29 11:41:52;;;;;;;6.88;3.08;;;16.40;77.60;;;;;;5012313;28;20116;-77
2021/10/29 11:44:21;;;;;;;11.68;3.58;;;16.40;77.60;;;;;;5032434;28;20542;-77
2021/10/29 11:46:48;;;;;;;;;;;16.50;77.60;;;;;;5017998;28;20049;-77
2021/10/29 11:49:17;;;;;;;11.57;3.28;;;16.50;77.50;;;;;;5014170;28;20059;-77
2021/10/29 11:51:44;;;;;;;6.72;3.55;;;16.40;77.60;;;;;;5026886;28;20036;-77
2021/10/29 11:54:17;;;;;;;8.23;3.75;;;16.50;77.80;;;;;;4999422;28;20117;-78
2021/10/29 11:56:58;;;;;;;11.93;3.40;;;16.50;78.10;;;;;;4997829;28;20029;-78
2021/10/29 12:07:24;;;;;;;6.47;3.40;;;16.60;78.20;;;;;;5046972;28;20056;-78
2021/10/29 12:09:51;;;;;;;5.80;2.70;;;16.70;78.20;;;;;;5031046;28;20565;-78
2021/10/29 12:12:21;;;;;;;7.90;3.33;;;16.90;78.30;;;;;;5013303;28;20435;-78
2021/10/29 12:14:49;;;;;;;6.28;3.28;;;17.00;78.10;;;;;;5030711;28;20882;-78
2021/10/29 12:17:24;;;;;;;4.80;3.13;;;17.10;77.70;;;;;;5029409;28;20041;-78
2021/10/29 12:19:54;;;;;;;5.43;2.97;;;17.30;77.40;;;;;;5049503;28;20068;-78
2021/10/29 12:25:01;;;;;;;5.03;3.10;;;17.50;77.40;;;;;;5034141;28;20044;-78
2021/10/29 12:27:35;;;;;;;8.30;2.80;;;17.50;77.20;;;;;;5015542;28;20033;-77
2021/10/29 12:34:04;;;;;;;3.08;2.60;;;17.70;76.80;;;;;;5011267;28;20033;-77
2021/10/29 13:03:26;;;;;;;7.57;1.60;;;18.60;69.20;;;;;;5029920;28;20112;-77
2021/10/29 13:05:55;;;;;;;4.50;2.10;;;18.70;68.20;;;;;;5012269;28;20141;-77
2021/10/29 13:08:23;;;;;;;3.80;1.70;;;18.90;67.80;;;;;;5011742;28;20035;-77
2021/10/29 13:10:54;;;;;;;5.60;2.28;;;18.90;67.60;;;;;;5011949;28;20112;-77
2021/10/29 13:13:29;;;;;;;5.95;1.90;;;18.90;66.50;;;;;;4995336;28;20442;-77
2021/10/29 13:16:01;;;;;;;3.15;1.60;;;18.80;68.10;;;;;;5029653;28;20453;-77
2021/10/29 13:18:36;;;;;;;5.72;2.22;;;18.80;68.00;;;;;;5007731;28;20549;-77
2021/10/29 13:29:10;;;;;;;5.22;1.63;;;18.70;68.90;;;;;;5017369;28;20045;-78
2021/10/29 13:34:44;;;;;;;7.82;2.30;;;18.70;68.10;;;;;;5024421;28;20109;-76
2021/10/29 13:53:40;;;;;;;6.15;1.95;;;19.40;65.00;;;;;;5028547;28;20287;-77
2021/10/29 14:01:43;;;;;;;4.15;2.10;;;19.00;67.40;;;;;;5093747;28;20647;-76
2021/10/29 14:31:06;;;;;;;7.38;2.00;;;18.00;69.60;;;;;;5029737;28;20120;-79
2021/10/29 14:33:35;;;;;;;7.68;2.20;;;17.90;69.70;;;;;;4996739;28;20034;-78
2021/10/29 14:36:03;;;;;;;9.18;2.00;;;17.90;70.00;;;;;;5124921;28;20076;-79
2021/10/29 14:38:39;;;;;;;5.53;2.05;;;17.80;70.70;;;;;;5032180;28;20022;-79
2021/10/29 14:41:34;;;;;;;8.57;2.50;;;17.80;71.20;;;;;;5029444;28;20557;-79
2021/10/29 14:43:59;;;;;;;5.63;2.08;;;17.70;71.30;;;;;;5031720;28;20033;-80
2021/10/29 14:46:40;;;;;;;8.43;2.38;;;17.60;71.10;;;;;;5015103;28;20033;-80
2021/10/29 14:49:39;;;;;;;6.50;2.35;;;17.60;70.90;;;;;;5031467;28;20225;-80
2021/10/29 15:17:03;;;;;;;5.13;2.20;;;17.10;72.30;;;;;;5035898;28;20505;-77
2021/10/29 15:30:02;;;;;;;4.72;2.17;;;16.90;73.50;;;;;;5011887;28;20395;-76
2021/10/29 15:45:45;;;;;;;3.72;2.17;;;16.60;75.40;;;;;;5032279;28;20030;-77
2021/10/29 15:48:23;;;;;;;4.45;2.20;;;16.50;75.60;;;;;;5023808;28;20057;-77
2021/10/29 15:50:49;;;;;;;6.43;2.22;;;16.50;75.70;;;;;;5026089;28;20081;-77
2021/10/29 15:53:15;;;;;;;5.70;2.50;;;16.50;75.60;;;;;;5032498;28;20442;-77
2021/10/29 15:55:55;;;;;;;6.95;2.08;;;16.50;75.70;;;;;;5013930;28;20028;-77
2021/10/29 15:58:38;;;;;;;7.00;2.42;;;16.50;75.70;;;;;;5011570;28;20113;-78
2021/10/29 16:01:16;;;;;;;3.97;2.00;;;16.50;75.50;;;;;;5014101;28;20500;-78
2021/10/29 16:03:52;;;;;;;4.10;2.15;;;16.50;75.50;;;;;;5015346;28;20041;-77
2021/10/29 16:17:37;;;;;;;4.97;2.30;;;16.50;75.90;;;;;;5083452;28;20041;-79
2021/10/29 16:20:04;;;;;;;5.93;2.53;;;16.50;76.00;;;;;;5021876;28;20056;-79
2021/10/29 16:22:33;;;;;;;4.30;2.15;;;16.50;75.80;;;;;;5030437;28;20034;-79
2021/10/29 16:25:06;;;;;;;6.72;2.22;;;16.50;75.70;;;;;;5030466;28;20427;-79
2021/10/29 16:30:15;;;;;;;5.32;2.42;;;16.50;75.80;;;;;;5015230;28;20034;-79
2021/10/29 16:35:25;;;;;;;5.78;2.28;;;16.50;76.30;;;;;;5041565;28;20482;-79
2021/10/29 16:37:51;;;;;;;6.57;2.25;;;16.50;76.40;;;;;;5030028;28;20033;-77
2021/10/29 16:40:17;;;;;;;5.53;2.20;;;16.50;77.00;;;;;;5030007;28;20095;-78
2021/10/29 16:42:43;;;;;;;4.95;2.10;;;16.50;76.60;;;;;;5028387;28;20056;-78
2021/10/29 16:45:12;;;;;;;6.03;2.50;;;16.40;76.60;;;;;;5028882;28;20041;-78
2021/10/29 16:47:40;;;;;;;4.97;2.67;;;16.40;76.80;;;;;;5012736;28;20068;-78
2021/10/29 16:50:08;;;;;;;9.05;2.83;;;16.40;77.40;;;;;;5092184;28;20040;-78
2021/10/29 16:52:33;;;;;;;5.50;2.55;;;16.40;78.00;;;;;;5092737;28;20020;-78
2021/10/29 16:54:59;;;;;;;9.85;2.97;;;16.30;78.30;;;;;;5092015;28;20028;-78
2021/10/29 16:57:25;;;;;;;5.57;2.60;;;16.30;79.70;;;;;;5093021;28;20370;-78
2021/10/29 16:59:50;;;;;;;6.05;2.92;;;16.20;80.30;;;;;;5092106;28;20047;-78
2021/10/29 17:02:16;;;;;;;7.45;3.30;;;16.10;81.80;;;;;;5080578;28;20489;-79
2021/10/29 17:04:42;;;;;;;7.75;3.42;;;16.10;82.50;;;;;;5125316;27;20024;-79
2021/10/29 17:07:07;;;;;;;4.68;2.85;;;16.00;83.30;;;;;;5091647;28;20060;-79
2021/10/29 17:09:34;;;;;;;4.95;2.97;;;15.90;84.00;;;;;;5088536;28;20028;-79
2021/10/29 17:12:00;;;;;;;5.65;3.15;;;15.90;84.30;;;;;;5089747;28;20020;-79
2021/10/29 17:14:27;;;;;;;6.70;2.63;;;15.80;84.60;;;;;;5089745;28;20028;-80
2021/10/29 17:16:54;;;;;;;7.75;2.53;;;15.80;85.00;;;;;;5087394;28;20107;-79
2021/10/29 17:19:21;;;;;;;7.38;3.10;;;15.70;85.20;;;;;;5089679;28;20080;-79
2021/10/29 17:21:47;;;;;;;6.22;3.00;;;15.70;85.30;;;;;;5087728;28;20028;-78
2021/10/29 17:24:13;;;;;;;6.40;2.83;;;15.70;85.60;;;;;;5122943;27;20545;-78
2021/10/29 17:26:39;;;;;;;5.30;2.92;;;15.70;85.80;;;;;;5090706;28;20059;-78
2021/10/29 17:29:04;;;;;;;5.63;2.90;;;15.60;86.10;;;;;;5101876;28;20063;-78
2021/10/29 17:31:30;;;;;;;7.97;2.85;;;15.60;86.20;;;;;;5092575;28;20031;-78
2021/10/29 17:33:55;;;;;;;5.05;2.63;;;15.60;86.30;;;;;;5089744;28;20460;-77
2021/10/29 17:36:21;;;;;;;5.75;3.17;;;15.60;86.50;;;;;;5091842;28;20157;-78
2021/10/29 17:38:47;;;;;;;5.90;2.78;;;15.60;87.50;;;;;;5092269;28;20020;-78
2021/10/29 17:41:13;;;;;;;5.22;2.90;;;15.50;87.30;;;;;;5092347;28;20028;-78
2021/10/29 17:43:39;;;;;;;6.65;3.20;;;15.50;87.70;;;;;;5101096;28;20015;-78
2021/10/29 17:46:05;;;;;;;8.70;3.17;;;15.50;88.10;;;;;;5109519;28;20034;-77
2021/10/29 17:48:32;;;;;;;7.32;3.22;;;15.50;89.10;;;;;;5069710;28;20091;-77
2021/10/29 17:50:58;;;;;;;4.03;3.00;;;15.40;89.60;;;;;;5010751;28;20474;-78